Hovedside
METAR-TAF:

METAR-TAF

Lufthavner :

Tortola, De britiske jomfruøyene

breddegrad: 18-27N, lengdegrad: 064-32W, høyde over havet: 4 m

Gjeldene værobservasjon

Denne rapporten ble laget for 59 minutter siden, klokken 13:00 UTC
Vind 8 kt fra Øst-sørøst
Temperatur 30°C
Luftfuktighet 79%
Trykk 1017 hPa
Sikt: 16.1 km
Spredte skyer i en høyde av 2000 ft

METAR: TUPJ 191300Z 12008KT 10SM SCT020 30/26 A3002 RMK Q1016 VIS16KM

Tid: 09:59 (13:59 UTC)

Varsel

Denne rapporten ble laget for 2 timer og 59 minutter siden, klokken 11:00 UTC
Varsel gyldig fra 19. klokken 12 UTC til 20. klokken 12 UTC
Vind 9 kt fra Øst-sørøst
Sikt 10 km eller mer
Spredte skyer i en høyde av 2200 ft

TAF: TUPJ 191100Z 1912/2012 11009KT 9999 SCT022

Værobservasjoner og værvarsel for over 4000 flyplasser (METAR- og TAF-rapporter).

Tilgjengelige stasjoner er representert av de røde og gule prikkene på kartet.

Hold musepekeren over prikken for å se navnet på stasjonen.

Klikk så for å se værobservasjoner og -varsler.

For å forandre kartet kan du klikke på den grønne knappen med svart kryss for å zoome inn, på den grønne knappen med strek for å zoome ut, eller på de grønne pilene for å se tilstøtende kart.


METAR-TAF: